sensor_id;sensor_type;location;lat;lon;timestamp;pressure;altitude;pressure_sealevel;temperature;humidity
11499;BME280;5806;48.748;9.278;2023-07-31T00:00:57;100651.95;;;17.25;91.41
11499;BME280;5806;48.748;9.278;2023-07-31T00:03:25;100652.67;;;17.38;90.12
11499;BME280;5806;48.748;9.278;2023-07-31T00:05:53;100648.39;;;17.20;90.53
11499;BME280;5806;48.748;9.278;2023-07-31T00:08:20;100649.12;;;17.33;90.99
11499;BME280;5806;48.748;9.278;2023-07-31T00:10:51;100648.83;;;17.34;89.65
11499;BME280;5806;48.748;9.278;2023-07-31T00:13:19;100643.64;;;17.28;91.68
11499;BME280;5806;48.748;9.278;2023-07-31T00:15:47;100651.58;;;17.37;88.79
11499;BME280;5806;48.748;9.278;2023-07-31T00:18:17;100641.64;;;17.36;90.31
11499;BME280;5806;48.748;9.278;2023-07-31T00:20:44;100647.73;;;17.33;89.12
11499;BME280;5806;48.748;9.278;2023-07-31T00:23:12;100645.12;;;17.51;88.55
11499;BME280;5806;48.748;9.278;2023-07-31T00:25:42;100647.70;;;17.40;89.80
11499;BME280;5806;48.748;9.278;2023-07-31T00:28:10;100652.66;;;17.43;89.53
11499;BME280;5806;48.748;9.278;2023-07-31T00:30:38;100652.94;;;17.42;89.42
11499;BME280;5806;48.748;9.278;2023-07-31T00:33:06;100646.81;;;17.47;90.00
11499;BME280;5806;48.748;9.278;2023-07-31T00:35:34;100641.61;;;17.38;90.51
11499;BME280;5806;48.748;9.278;2023-07-31T00:38:01;100648.86;;;17.32;91.49
11499;BME280;5806;48.748;9.278;2023-07-31T00:40:29;100644.41;;;17.36;91.75
11499;BME280;5806;48.748;9.278;2023-07-31T00:42:56;100645.78;;;17.36;91.07
11499;BME280;5806;48.748;9.278;2023-07-31T00:45:26;100647.42;;;17.37;90.74
11499;BME280;5806;48.748;9.278;2023-07-31T00:47:55;100644.37;;;17.38;91.38
11499;BME280;5806;48.748;9.278;2023-07-31T00:50:25;100640.58;;;17.27;91.14
11499;BME280;5806;48.748;9.278;2023-07-31T00:52:52;100636.66;;;17.35;90.18
11499;BME280;5806;48.748;9.278;2023-07-31T00:55:20;100636.33;;;17.44;89.62
11499;BME280;5806;48.748;9.278;2023-07-31T00:57:49;100629.44;;;17.42;88.90
11499;BME280;5806;48.748;9.278;2023-07-31T01:00:18;100628.91;;;17.35;89.46
11499;BME280;5806;48.748;9.278;2023-07-31T01:02:45;100624.19;;;17.40;88.71
11499;BME280;5806;48.748;9.278;2023-07-31T01:05:13;100620.23;;;17.51;87.72
11499;BME280;5806;48.748;9.278;2023-07-31T01:07:52;100614.16;;;17.49;87.75
11499;BME280;5806;48.748;9.278;2023-07-31T01:10:26;100620.70;;;17.61;85.50
11499;BME280;5806;48.748;9.278;2023-07-31T01:12:51;100616.00;;;17.59;85.47
11499;BME280;5806;48.748;9.278;2023-07-31T01:15:28;100601.08;;;17.57;84.25
11499;BME280;5806;48.748;9.278;2023-07-31T01:17:55;100598.05;;;17.56;86.00
11499;BME280;5806;48.748;9.278;2023-07-31T01:20:24;100601.72;;;17.52;85.79
11499;BME280;5806;48.748;9.278;2023-07-31T01:23:22;100600.03;;;17.51;84.90
11499;BME280;5806;48.748;9.278;2023-07-31T01:26:03;100609.69;;;17.53;84.09
11499;BME280;5806;48.748;9.278;2023-07-31T01:28:37;100611.54;;;17.63;83.10
11499;BME280;5806;48.748;9.278;2023-07-31T01:31:03;100606.93;;;17.56;84.50
11499;BME280;5806;48.748;9.278;2023-07-31T01:33:34;100608.55;;;17.59;82.49
11499;BME280;5806;48.748;9.278;2023-07-31T01:36:02;100611.05;;;17.58;81.95
11499;BME280;5806;48.748;9.278;2023-07-31T01:38:30;100604.83;;;17.71;81.57
11499;BME280;5806;48.748;9.278;2023-07-31T01:40:58;100610.36;;;17.71;81.10
11499;BME280;5806;48.748;9.278;2023-07-31T01:43:26;100609.38;;;17.60;80.84
11499;BME280;5806;48.748;9.278;2023-07-31T01:45:53;100607.91;;;17.67;81.96
11499;BME280;5806;48.748;9.278;2023-07-31T01:48:21;100604.31;;;17.67;81.30
11499;BME280;5806;48.748;9.278;2023-07-31T01:50:48;100600.13;;;17.72;81.99
11499;BME280;5806;48.748;9.278;2023-07-31T01:53:17;100596.56;;;17.69;81.75
11499;BME280;5806;48.748;9.278;2023-07-31T01:55:45;100596.24;;;17.73;81.32
11499;BME280;5806;48.748;9.278;2023-07-31T01:58:12;100594.08;;;17.67;81.40
11499;BME280;5806;48.748;9.278;2023-07-31T02:00:40;100600.16;;;17.67;81.99
11499;BME280;5806;48.748;9.278;2023-07-31T02:03:07;100590.45;;;17.69;81.91
11499;BME280;5806;48.748;9.278;2023-07-31T02:05:38;100594.31;;;17.71;82.08
11499;BME280;5806;48.748;9.278;2023-07-31T02:08:07;100590.77;;;17.68;82.05
11499;BME280;5806;48.748;9.278;2023-07-31T02:10:34;100594.92;;;17.68;82.12
11499;BME280;5806;48.748;9.278;2023-07-31T02:13:04;100586.02;;;17.71;81.86
11499;BME280;5806;48.748;9.278;2023-07-31T02:15:31;100584.62;;;17.71;81.29
11499;BME280;5806;48.748;9.278;2023-07-31T02:18:00;100585.92;;;17.81;81.01
11499;BME280;5806;48.748;9.278;2023-07-31T02:20:28;100585.86;;;17.86;80.77
11499;BME280;5806;48.748;9.278;2023-07-31T02:22:57;100579.52;;;17.83;82.08
11499;BME280;5806;48.748;9.278;2023-07-31T02:25:25;100576.81;;;17.78;82.11
11499;BME280;5806;48.748;9.278;2023-07-31T02:27:52;100578.45;;;17.79;81.12
11499;BME280;5806;48.748;9.278;2023-07-31T02:30:20;100568.27;;;17.77;80.76
11499;BME280;5806;48.748;9.278;2023-07-31T02:32:47;100571.83;;;17.80;80.74
11499;BME280;5806;48.748;9.278;2023-07-31T02:35:16;100565.66;;;17.85;80.61
11499;BME280;5806;48.748;9.278;2023-07-31T02:37:45;100558.25;;;17.81;81.29
11499;BME280;5806;48.748;9.278;2023-07-31T02:40:12;100559.64;;;17.81;80.75
11499;BME280;5806;48.748;9.278;2023-07-31T02:42:40;100556.88;;;17.81;80.97
11499;BME280;5806;48.748;9.278;2023-07-31T02:45:09;100556.55;;;17.85;81.28
11499;BME280;5806;48.748;9.278;2023-07-31T02:47:37;100562.34;;;17.86;81.07
11499;BME280;5806;48.748;9.278;2023-07-31T02:50:05;100563.53;;;17.80;80.55
11499;BME280;5806;48.748;9.278;2023-07-31T02:52:32;100563.34;;;17.95;80.26
11499;BME280;5806;48.748;9.278;2023-07-31T02:55:01;100566.04;;;17.76;80.79
11499;BME280;5806;48.748;9.278;2023-07-31T02:57:29;100559.28;;;17.87;79.98
11499;BME280;5806;48.748;9.278;2023-07-31T02:59:56;100555.06;;;17.92;79.70
11499;BME280;5806;48.748;9.278;2023-07-31T03:02:24;100553.42;;;17.91;79.92
11499;BME280;5806;48.748;9.278;2023-07-31T03:04:51;100552.56;;;17.93;79.50
11499;BME280;5806;48.748;9.278;2023-07-31T03:07:19;100550.47;;;17.83;80.46
11499;BME280;5806;48.748;9.278;2023-07-31T03:09:46;100545.97;;;17.92;80.31
11499;BME280;5806;48.748;9.278;2023-07-31T03:12:14;100546.34;;;18.04;79.62
11499;BME280;5806;48.748;9.278;2023-07-31T03:14:41;100535.92;;;17.96;79.08
11499;BME280;5806;48.748;9.278;2023-07-31T03:17:09;100538.75;;;17.91;80.14
11499;BME280;5806;48.748;9.278;2023-07-31T03:19:36;100540.61;;;17.98;79.66
11499;BME280;5806;48.748;9.278;2023-07-31T03:22:04;100531.22;;;17.96;79.63
11499;BME280;5806;48.748;9.278;2023-07-31T03:24:32;100533.52;;;17.92;79.74
11499;BME280;5806;48.748;9.278;2023-07-31T03:26:59;100529.80;;;17.99;80.16
11499;BME280;5806;48.748;9.278;2023-07-31T03:29:27;100525.69;;;17.96;79.71
11499;BME280;5806;48.748;9.278;2023-07-31T03:31:54;100522.16;;;17.91;79.82
11499;BME280;5806;48.748;9.278;2023-07-31T03:34:22;100520.80;;;17.88;79.66
11499;BME280;5806;48.748;9.278;2023-07-31T03:36:50;100518.04;;;17.88;80.08
11499;BME280;5806;48.748;9.278;2023-07-31T03:39:17;100519.67;;;17.92;79.39
11499;BME280;5806;48.748;9.278;2023-07-31T03:41:45;100515.45;;;17.97;79.45
11499;BME280;5806;48.748;9.278;2023-07-31T03:44:13;100512.07;;;18.00;79.40
11499;BME280;5806;48.748;9.278;2023-07-31T03:46:40;100512.07;;;18.00;78.95
11499;BME280;5806;48.748;9.278;2023-07-31T03:49:08;100511.56;;;17.98;78.92
11499;BME280;5806;48.748;9.278;2023-07-31T03:51:36;100509.27;;;18.05;78.54
11499;BME280;5806;48.748;9.278;2023-07-31T03:54:03;100516.18;;;18.05;78.30
11499;BME280;5806;48.748;9.278;2023-07-31T03:56:31;100518.25;;;17.94;79.43
11499;BME280;5806;48.748;9.278;2023-07-31T03:58:58;100518.84;;;17.91;80.30
11499;BME280;5806;48.748;9.278;2023-07-31T04:01:26;100519.64;;;17.94;79.92
11499;BME280;5806;48.748;9.278;2023-07-31T04:03:55;100521.61;;;17.91;80.74
11499;BME280;5806;48.748;9.278;2023-07-31T04:06:23;100510.50;;;17.94;80.01
11499;BME280;5806;48.748;9.278;2023-07-31T04:08:50;100510.10;;;18.03;79.73
11499;BME280;5806;48.748;9.278;2023-07-31T04:11:18;100507.48;;;17.93;80.16
11499;BME280;5806;48.748;9.278;2023-07-31T04:13:45;100509.34;;;17.97;80.01
11499;BME280;5806;48.748;9.278;2023-07-31T04:16:13;100511.84;;;17.96;80.33
11499;BME280;5806;48.748;9.278;2023-07-31T04:18:40;100503.25;;;17.98;80.61
11499;BME280;5806;48.748;9.278;2023-07-31T04:21:08;100510.17;;;17.98;79.95
11499;BME280;5806;48.748;9.278;2023-07-31T04:23:36;100494.59;;;18.04;80.40
11499;BME280;5806;48.748;9.278;2023-07-31T04:26:03;100499.06;;;18.00;80.92
11499;BME280;5806;48.748;9.278;2023-07-31T04:28:31;100496.92;;;17.95;81.27
11499;BME280;5806;48.748;9.278;2023-07-31T04:31:00;100499.44;;;17.94;80.95
11499;BME280;5806;48.748;9.278;2023-07-31T04:33:28;100492.80;;;17.92;81.45
11499;BME280;5806;48.748;9.278;2023-07-31T04:35:55;100496.92;;;17.95;80.94
11499;BME280;5806;48.748;9.278;2023-07-31T04:38:23;100494.92;;;18.00;81.35
11499;BME280;5806;48.748;9.278;2023-07-31T04:40:50;100492.73;;;17.97;80.56
11499;BME280;5806;48.748;9.278;2023-07-31T04:43:19;100488.88;;;17.96;80.76
11499;BME280;5806;48.748;9.278;2023-07-31T04:45:47;100490.98;;;18.04;80.88
11499;BME280;5806;48.748;9.278;2023-07-31T04:48:15;100495.54;;;17.95;81.58
11499;BME280;5806;48.748;9.278;2023-07-31T04:50:42;100491.42;;;17.92;82.40
11499;BME280;5806;48.748;9.278;2023-07-31T04:53:10;100492.11;;;17.82;83.91
11499;BME280;5806;48.748;9.278;2023-07-31T04:55:38;100489.41;;;17.77;85.04
11499;BME280;5806;48.748;9.278;2023-07-31T04:58:05;100482.02;;;17.70;84.69
11499;BME280;5806;48.748;9.278;2023-07-31T05:00:33;100480.38;;;17.69;85.13
11499;BME280;5806;48.748;9.278;2023-07-31T05:03:01;100477.25;;;17.75;84.82
11499;BME280;5806;48.748;9.278;2023-07-31T05:05:28;100479.70;;;17.79;85.07
11499;BME280;5806;48.748;9.278;2023-07-31T05:07:56;100480.20;;;17.81;84.61
11499;BME280;5806;48.748;9.278;2023-07-31T05:10:23;100477.25;;;17.75;85.09
11499;BME280;5806;48.748;9.278;2023-07-31T05:12:51;100440.67;;;17.60;83.83
11499;BME280;5806;48.748;9.278;2023-07-31T05:15:18;100462.23;;;17.81;84.40
11499;BME280;5806;48.748;9.278;2023-07-31T05:17:46;100449.95;;;17.90;82.43
11499;BME280;5806;48.748;9.278;2023-07-31T05:20:13;100454.44;;;17.86;83.28
11499;BME280;5806;48.748;9.278;2023-07-31T05:22:41;100451.08;;;17.89;83.41
11499;BME280;5806;48.748;9.278;2023-07-31T05:25:08;100449.29;;;17.98;81.56
11499;BME280;5806;48.748;9.278;2023-07-31T05:27:36;100440.07;;;18.05;79.85
11499;BME280;5806;48.748;9.278;2023-07-31T05:30:04;100445.10;;;18.00;81.61
11499;BME280;5806;48.748;9.278;2023-07-31T05:32:32;100443.31;;;18.09;81.72
11499;BME280;5806;48.748;9.278;2023-07-31T05:35:00;100451.86;;;18.13;81.15
11499;BME280;5806;48.748;9.278;2023-07-31T05:37:27;100449.27;;;18.19;79.68
11499;BME280;5806;48.748;9.278;2023-07-31T05:39:55;100444.60;;;18.17;80.37
11499;BME280;5806;48.748;9.278;2023-07-31T05:42:22;100433.75;;;18.20;79.59
11499;BME280;5806;48.748;9.278;2023-07-31T05:44:52;100426.86;;;18.18;79.74
11499;BME280;5806;48.748;9.278;2023-07-31T05:47:19;100427.23;;;18.11;81.13
11499;BME280;5806;48.748;9.278;2023-07-31T05:49:47;100414.49;;;18.13;80.27
11499;BME280;5806;48.748;9.278;2023-07-31T05:52:15;100414.16;;;18.17;80.40
11499;BME280;5806;48.748;9.278;2023-07-31T05:54:43;100407.73;;;18.19;80.16
11499;BME280;5806;48.748;9.278;2023-07-31T05:57:12;100406.39;;;18.16;80.24
11499;BME280;5806;48.748;9.278;2023-07-31T05:59:39;100395.88;;;18.16;80.58
11499;BME280;5806;48.748;9.278;2023-07-31T06:02:07;100388.81;;;18.26;78.33
11499;BME280;5806;48.748;9.278;2023-07-31T06:04:35;100392.59;;;18.14;80.25
11499;BME280;5806;48.748;9.278;2023-07-31T06:07:02;100398.72;;;18.11;80.05
11499;BME280;5806;48.748;9.278;2023-07-31T06:09:33;100397.50;;;18.19;78.12
11499;BME280;5806;48.748;9.278;2023-07-31T06:12:00;100407.94;;;18.25;78.30
11499;BME280;5806;48.748;9.278;2023-07-31T06:14:28;100407.99;;;18.20;78.89
11499;BME280;5806;48.748;9.278;2023-07-31T06:16:55;100412.39;;;18.23;79.20
11499;BME280;5806;48.748;9.278;2023-07-31T06:19:22;100420.08;;;18.08;82.28
11499;BME280;5806;48.748;9.278;2023-07-31T06:21:50;100419.53;;;18.08;81.36
11499;BME280;5806;48.748;9.278;2023-07-31T06:24:17;100420.06;;;17.89;85.11
11499;BME280;5806;48.748;9.278;2023-07-31T06:26:46;100417.20;;;17.78;87.21
11499;BME280;5806;48.748;9.278;2023-07-31T06:29:14;100415.09;;;17.70;88.29
11499;BME280;5806;48.748;9.278;2023-07-31T06:31:41;100416.22;;;17.67;88.88
11499;BME280;5806;48.748;9.278;2023-07-31T06:34:09;100415.59;;;17.72;89.60
11499;BME280;5806;48.748;9.278;2023-07-31T06:36:36;100400.75;;;17.66;90.13
11499;BME280;5806;48.748;9.278;2023-07-31T06:39:03;100399.98;;;17.60;91.50
11499;BME280;5806;48.748;9.278;2023-07-31T06:41:31;100397.08;;;17.52;92.96
11499;BME280;5806;48.748;9.278;2023-07-31T06:43:58;100397.41;;;17.48;93.51
11499;BME280;5806;48.748;9.278;2023-07-31T06:46:26;100394.02;;;17.51;93.23
11499;BME280;5806;48.748;9.278;2023-07-31T06:48:53;100400.31;;;17.56;93.87
11499;BME280;5806;48.748;9.278;2023-07-31T06:51:21;100403.22;;;17.67;93.14
11499;BME280;5806;48.748;9.278;2023-07-31T06:53:48;100395.77;;;17.68;92.74
11499;BME280;5806;48.748;9.278;2023-07-31T06:56:16;100396.60;;;17.66;91.06
11499;BME280;5806;48.748;9.278;2023-07-31T06:58:43;100388.27;;;17.68;92.02
11499;BME280;5806;48.748;9.278;2023-07-31T07:01:11;100382.87;;;17.79;91.20
11499;BME280;5806;48.748;9.278;2023-07-31T07:03:38;100392.97;;;17.89;91.61
11499;BME280;5806;48.748;9.278;2023-07-31T07:06:06;100396.50;;;17.94;89.17
11499;BME280;5806;48.748;9.278;2023-07-31T07:08:33;100394.79;;;17.96;89.33
11499;BME280;5806;48.748;9.278;2023-07-31T07:11:01;100390.17;;;17.91;90.85
11499;BME280;5806;48.748;9.278;2023-07-31T07:13:28;100393.81;;;17.87;91.19
11499;BME280;5806;48.748;9.278;2023-07-31T07:15:55;100392.60;;;17.95;89.83
11499;BME280;5806;48.748;9.278;2023-07-31T07:18:23;100389.95;;;17.88;92.06
11499;BME280;5806;48.748;9.278;2023-07-31T07:20:52;100384.63;;;17.91;91.05
11499;BME280;5806;48.748;9.278;2023-07-31T07:23:20;100385.14;;;17.93;90.04
11499;BME280;5806;48.748;9.278;2023-07-31T07:25:48;100382.23;;;17.85;93.00
11499;BME280;5806;48.748;9.278;2023-07-31T07:28:15;100380.23;;;17.90;91.24
11499;BME280;5806;48.748;9.278;2023-07-31T07:30:43;100379.31;;;17.95;91.57
11499;BME280;5806;48.748;9.278;2023-07-31T07:33:11;100382.08;;;17.95;92.49
11499;BME280;5806;48.748;9.278;2023-07-31T07:35:39;100379.31;;;17.95;92.80
11499;BME280;5806;48.748;9.278;2023-07-31T07:38:06;100386.56;;;17.91;93.93
11499;BME280;5806;48.748;9.278;2023-07-31T07:40:38;100385.14;;;17.93;94.83
11499;BME280;5806;48.748;9.278;2023-07-31T07:43:06;100387.77;;;17.85;93.65
11499;BME280;5806;48.748;9.278;2023-07-31T07:45:34;100384.21;;;17.82;93.27
11499;BME280;5806;48.748;9.278;2023-07-31T07:48:01;100392.84;;;17.78;94.49
11499;BME280;5806;48.748;9.278;2023-07-31T07:50:29;100391.17;;;17.79;94.59
11499;BME280;5806;48.748;9.278;2023-07-31T07:52:57;100383.71;;;17.77;96.08
11499;BME280;5806;48.748;9.278;2023-07-31T07:55:25;100384.84;;;17.76;96.00
11499;BME280;5806;48.748;9.278;2023-07-31T07:57:52;100380.36;;;17.80;96.46
11499;BME280;5806;48.748;9.278;2023-07-31T08:00:19;100382.79;;;17.84;97.67
11499;BME280;5806;48.748;9.278;2023-07-31T08:02:47;100389.56;;;17.76;98.83
11499;BME280;5806;48.748;9.278;2023-07-31T08:05:14;100389.28;;;17.75;98.61
11499;BME280;5806;48.748;9.278;2023-07-31T08:07:43;100388.73;;;17.75;99.21
11499;BME280;5806;48.748;9.278;2023-07-31T08:10:11;100390.38;;;17.76;99.52
11499;BME280;5806;48.748;9.278;2023-07-31T08:12:38;100392.00;;;17.80;99.90
11499;BME280;5806;48.748;9.278;2023-07-31T08:15:06;100394.15;;;17.83;98.84
11499;BME280;5806;48.748;9.278;2023-07-31T08:17:34;100402.56;;;17.75;96.40
11499;BME280;5806;48.748;9.278;2023-07-31T08:20:02;100400.59;;;17.78;98.14
11499;BME280;5806;48.748;9.278;2023-07-31T08:22:29;100386.34;;;17.69;95.28
11499;BME280;5806;48.748;9.278;2023-07-31T08:24:56;100383.69;;;17.59;92.65
11499;BME280;5806;48.748;9.278;2023-07-31T08:27:24;100387.80;;;17.64;95.66
11499;BME280;5806;48.748;9.278;2023-07-31T08:29:52;100379.28;;;17.58;98.46
11499;BME280;5806;48.748;9.278;2023-07-31T08:32:19;100378.88;;;17.67;98.22
11499;BME280;5806;48.748;9.278;2023-07-31T08:34:47;100369.86;;;17.59;95.77
11499;BME280;5806;48.748;9.278;2023-07-31T08:37:15;100369.39;;;17.54;97.55
11499;BME280;5806;48.748;9.278;2023-07-31T08:39:42;100361.05;;;17.57;98.14
11499;BME280;5806;48.748;9.278;2023-07-31T08:42:10;100355.78;;;17.58;98.65
11499;BME280;5806;48.748;9.278;2023-07-31T08:44:45;100348.78;;;17.63;98.04
11499;BME280;5806;48.748;9.278;2023-07-31T08:47:20;100349.66;;;17.61;99.35
11499;BME280;5806;48.748;9.278;2023-07-31T08:49:57;100343.75;;;17.67;100.00
11499;BME280;5806;48.748;9.278;2023-07-31T08:52:41;100337.72;;;17.63;99.50
11499;BME280;5806;48.748;9.278;2023-07-31T08:55:16;100336.05;;;17.64;98.69
11499;BME280;5806;48.748;9.278;2023-07-31T08:58:03;100332.73;;;17.65;99.24
11499;BME280;5806;48.748;9.278;2023-07-31T09:00:34;100327.91;;;17.54;99.40
11499;BME280;5806;48.748;9.278;2023-07-31T09:03:20;100336.53;;;17.50;99.20
11499;BME280;5806;48.748;9.278;2023-07-31T09:05:56;100342.16;;;17.61;98.68
11499;BME280;5806;48.748;9.278;2023-07-31T09:08:40;100342.50;;;17.57;100.00
11499;BME280;5806;48.748;9.278;2023-07-31T09:11:18;100344.46;;;17.57;100.00
11499;BME280;5806;48.748;9.278;2023-07-31T09:14:15;100342.20;;;17.59;100.00
11499;BME280;5806;48.748;9.278;2023-07-31T09:17:12;100345.44;;;17.66;100.00
11499;BME280;5806;48.748;9.278;2023-07-31T09:19:54;100348.49;;;17.64;100.00
11499;BME280;5806;48.748;9.278;2023-07-31T09:22:59;100359.05;;;17.62;100.00
11499;BME280;5806;48.748;9.278;2023-07-31T09:25:46;100357.88;;;17.66;100.00
11499;BME280;5806;48.748;9.278;2023-07-31T09:28:14;100353.77;;;17.63;100.00
11499;BME280;5806;48.748;9.278;2023-07-31T09:30:50;100352.55;;;17.72;100.00
11499;BME280;5806;48.748;9.278;2023-07-31T09:33:19;100352.94;;;17.63;97.12
11499;BME280;5806;48.748;9.278;2023-07-31T09:35:52;100348.90;;;17.55;93.95
11499;BME280;5806;48.748;9.278;2023-07-31T09:38:19;100346.17;;;17.53;94.92
11499;BME280;5806;48.748;9.278;2023-07-31T09:40:48;100343.08;;;17.57;95.59
11499;BME280;5806;48.748;9.278;2023-07-31T09:43:55;100334.20;;;17.57;96.06
11499;BME280;5806;48.748;9.278;2023-07-31T09:46:12;100329.25;;;17.57;96.58
11499;BME280;5806;48.748;9.278;2023-07-31T09:48:38;100331.61;;;17.66;98.42
11499;BME280;5806;48.748;9.278;2023-07-31T09:51:05;100331.09;;;17.64;97.14
11499;BME280;5806;48.748;9.278;2023-07-31T09:53:35;100327.12;;;17.70;95.00
11499;BME280;5806;48.748;9.278;2023-07-31T09:56:04;100323.01;;;17.67;96.81
11499;BME280;5806;48.748;9.278;2023-07-31T09:58:34;100317.27;;;17.64;96.10
11499;BME280;5806;48.748;9.278;2023-07-31T10:01:02;100313.12;;;17.64;96.82
11499;BME280;5806;48.748;9.278;2023-07-31T10:03:30;100311.95;;;17.67;97.65
11499;BME280;5806;48.748;9.278;2023-07-31T10:06:00;100301.18;;;17.66;98.64
11499;BME280;5806;48.748;9.278;2023-07-31T10:08:31;100300.34;;;17.68;99.60
11499;BME280;5806;48.748;9.278;2023-07-31T10:11:01;100294.47;;;17.69;99.14
11499;BME280;5806;48.748;9.278;2023-07-31T10:13:29;100293.09;;;17.69;100.00
11499;BME280;5806;48.748;9.278;2023-07-31T10:15:59;100287.80;;;17.73;99.82
11499;BME280;5806;48.748;9.278;2023-07-31T10:18:27;100291.28;;;17.81;99.32
11499;BME280;5806;48.748;9.278;2023-07-31T10:20:55;100292.06;;;17.84;100.00
11499;BME280;5806;48.748;9.278;2023-07-31T10:23:24;100289.66;;;17.77;99.92
11499;BME280;5806;48.748;9.278;2023-07-31T10:25:53;100293.75;;;17.82;100.00
11499;BME280;5806;48.748;9.278;2023-07-31T10:28:21;100295.64;;;17.84;100.00
11499;BME280;5806;48.748;9.278;2023-07-31T10:30:49;100289.52;;;17.87;100.00
11499;BME280;5806;48.748;9.278;2023-07-31T10:33:18;100287.23;;;17.92;99.79
11499;BME280;5806;48.748;9.278;2023-07-31T10:35:47;100279.66;;;17.97;100.00
11499;BME280;5806;48.748;9.278;2023-07-31T10:38:16;100289.04;;;17.99;100.00
11499;BME280;5806;48.748;9.278;2023-07-31T10:40:43;100284.78;;;18.06;100.00
11499;BME280;5806;48.748;9.278;2023-07-31T10:43:23;100280.55;;;18.11;100.00
11499;BME280;5806;48.748;9.278;2023-07-31T10:45:49;100287.51;;;18.09;100.00
11499;BME280;5806;48.748;9.278;2023-07-31T10:48:16;100289.99;;;18.08;100.00
11499;BME280;5806;48.748;9.278;2023-07-31T10:50:52;100298.09;;;18.04;99.79
11499;BME280;5806;48.748;9.278;2023-07-31T10:53:28;100292.20;;;18.08;100.00
11499;BME280;5806;48.748;9.278;2023-07-31T10:55:59;100285.15;;;18.16;100.00
11499;BME280;5806;48.748;9.278;2023-07-31T10:58:27;100286.23;;;18.17;100.00
11499;BME280;5806;48.748;9.278;2023-07-31T11:00:59;100284.64;;;18.14;100.00
11499;BME280;5806;48.748;9.278;2023-07-31T11:04:05;100282.08;;;18.17;100.00
11499;BME280;5806;48.748;9.278;2023-07-31T11:06:03;100279.25;;;18.22;100.00
11499;BME280;5806;48.748;9.278;2023-07-31T11:08:32;100276.16;;;18.24;99.74
11499;BME280;5806;48.748;9.278;2023-07-31T11:11:05;100279.31;;;18.17;100.00
11499;BME280;5806;48.748;9.278;2023-07-31T11:13:44;100276.94;;;18.27;100.00
11499;BME280;5806;48.748;9.278;2023-07-31T11:16:15;100286.73;;;18.22;100.00
11499;BME280;5806;48.748;9.278;2023-07-31T11:18:44;100290.05;;;18.21;100.00
11499;BME280;5806;48.748;9.278;2023-07-31T11:21:19;100293.55;;;18.27;97.95
11499;BME280;5806;48.748;9.278;2023-07-31T11:23:48;100302.73;;;18.25;96.02
11499;BME280;5806;48.748;9.278;2023-07-31T11:26:17;100292.66;;;18.31;96.07
11499;BME280;5806;48.748;9.278;2023-07-31T11:28:49;100287.07;;;18.18;94.20
11499;BME280;5806;48.748;9.278;2023-07-31T11:31:19;100288.61;;;18.24;93.32
11499;BME280;5806;48.748;9.278;2023-07-31T11:33:47;100286.92;;;18.25;93.95
11499;BME280;5806;48.748;9.278;2023-07-31T11:36:20;100279.94;;;18.30;92.94
11499;BME280;5806;48.748;9.278;2023-07-31T11:38:45;100284.48;;;18.40;92.98
11499;BME280;5806;48.748;9.278;2023-07-31T11:41:14;100275.14;;;18.36;93.22
11499;BME280;5806;48.748;9.278;2023-07-31T11:43:43;100273.64;;;18.43;96.04
11499;BME280;5806;48.748;9.278;2023-07-31T11:46:10;100272.99;;;18.49;93.06
11499;BME280;5806;48.748;9.278;2023-07-31T11:48:39;100262.64;;;18.54;91.84
11499;BME280;5806;48.748;9.278;2023-07-31T11:51:09;100256.34;;;18.65;92.29
11499;BME280;5806;48.748;9.278;2023-07-31T11:53:45;100257.00;;;18.59;93.05
11499;BME280;5806;48.748;9.278;2023-07-31T11:56:17;100255.03;;;18.60;90.23
11499;BME280;5806;48.748;9.278;2023-07-31T11:58:51;100253.29;;;18.64;90.78
11499;BME280;5806;48.748;9.278;2023-07-31T12:01:15;100255.70;;;18.68;91.57
11499;BME280;5806;48.748;9.278;2023-07-31T12:03:45;100257.27;;;18.74;91.38
11499;BME280;5806;48.748;9.278;2023-07-31T12:06:13;100257.10;;;18.81;86.14
11499;BME280;5806;48.748;9.278;2023-07-31T12:08:40;100249.15;;;18.77;87.18
11499;BME280;5806;48.748;9.278;2023-07-31T12:11:09;100253.78;;;18.82;83.91
11499;BME280;5806;48.748;9.278;2023-07-31T12:13:36;100249.88;;;18.83;84.31
11499;BME280;5806;48.748;9.278;2023-07-31T12:16:04;100242.52;;;18.76;84.63
11499;BME280;5806;48.748;9.278;2023-07-31T12:18:37;100241.50;;;18.72;84.67
11499;BME280;5806;48.748;9.278;2023-07-31T12:21:06;100240.27;;;18.64;86.34
11499;BME280;5806;48.748;9.278;2023-07-31T12:23:35;100236.07;;;18.80;83.31
11499;BME280;5806;48.748;9.278;2023-07-31T12:26:05;100235.59;;;18.76;85.98
11499;BME280;5806;48.748;9.278;2023-07-31T12:28:46;100234.16;;;18.78;85.62
11499;BME280;5806;48.748;9.278;2023-07-31T12:31:12;100231.39;;;18.92;82.21
11499;BME280;5806;48.748;9.278;2023-07-31T12:33:40;100240.84;;;18.91;83.42
11499;BME280;5806;48.748;9.278;2023-07-31T12:36:11;100233.61;;;18.92;83.28
11499;BME280;5806;48.748;9.278;2023-07-31T12:38:39;100238.38;;;18.89;83.87
11499;BME280;5806;48.748;9.278;2023-07-31T12:41:06;100243.08;;;19.02;81.76
11499;BME280;5806;48.748;9.278;2023-07-31T12:43:35;100238.17;;;19.13;80.18
11499;BME280;5806;48.748;9.278;2023-07-31T12:46:02;100236.62;;;19.07;81.65
11499;BME280;5806;48.748;9.278;2023-07-31T12:48:30;100235.09;;;19.01;83.42
11499;BME280;5806;48.748;9.278;2023-07-31T12:50:58;100230.58;;;19.05;82.57
11499;BME280;5806;48.748;9.278;2023-07-31T12:53:26;100231.38;;;19.05;82.45
11499;BME280;5806;48.748;9.278;2023-07-31T12:55:53;100236.62;;;19.07;82.06
11499;BME280;5806;48.748;9.278;2023-07-31T12:58:20;100236.66;;;19.18;81.53
11499;BME280;5806;48.748;9.278;2023-07-31T13:00:48;100240.11;;;19.12;81.81
11499;BME280;5806;48.748;9.278;2023-07-31T13:03:15;100236.78;;;19.13;80.60
11499;BME280;5806;48.748;9.278;2023-07-31T13:05:43;100226.55;;;19.11;80.66
11499;BME280;5806;48.748;9.278;2023-07-31T13:08:10;100222.80;;;19.18;80.00
11499;BME280;5806;48.748;9.278;2023-07-31T13:10:38;100216.73;;;19.16;81.06